createdAt,value
2022-09-04T06:36:49.727Z,58.4
2022-09-04T06:42:27.374Z,44.8
2022-09-04T06:48:11.544Z,48.8
2022-09-04T06:53:55.143Z,54.3
2022-09-04T06:59:37.687Z,46.3
2022-09-04T07:05:15.635Z,48.6
2022-09-04T07:10:52.180Z,58.4
2022-09-04T07:16:13.736Z,47.6
2022-09-04T07:21:52.456Z,52.2
2022-09-04T07:27:30.572Z,54.1
2022-09-04T07:33:08.348Z,49.8
2022-09-04T07:38:50.727Z,51
2022-09-04T07:44:32.409Z,51.6
2022-09-04T07:50:10.419Z,51.8
2022-09-04T07:56:03.283Z,53.1
2022-09-04T08:01:40.716Z,54.1
2022-09-04T08:07:27.012Z,54.6
2022-09-04T08:13:04.077Z,55.5
2022-09-04T08:18:43.900Z,56.4
2022-09-04T08:24:21.184Z,57.4
2022-09-04T08:29:46.441Z,58.1
2022-09-04T08:35:28.951Z,58.1
2022-09-04T08:41:09.627Z,59.4
2022-09-04T08:46:32.797Z,59.5
2022-09-04T08:52:13.209Z,60.5
2022-09-04T08:57:21.903Z,61.3
2022-09-04T09:02:47.833Z,61.9
2022-09-04T09:08:09.865Z,62.1
2022-09-04T09:13:53.722Z,63.1
2022-09-04T09:19:20.080Z,62.4
2022-09-04T09:24:46.420Z,59.4
2022-09-04T09:30:25.014Z,60.6
2022-09-04T09:36:02.973Z,63.8
2022-09-04T09:41:32.853Z,63.8
2022-09-04T09:47:10.416Z,64.6
2022-09-04T09:52:57.905Z,64.7
2022-09-04T09:58:45.611Z,65.5
2022-09-04T10:04:23.840Z,66.3
2022-09-04T10:10:06.303Z,66.1
2022-09-04T10:15:42.570Z,66
2022-09-04T10:21:23.458Z,66.1
2022-09-04T10:27:05.552Z,66.8
2022-09-04T10:32:48.509Z,66.4
2022-09-04T10:38:33.087Z,67.6
2022-09-04T10:44:13.477Z,67.9
2022-09-04T11:07:22.165Z,68.2
2022-09-04T11:13:00.635Z,68.9
2022-09-04T11:18:43.740Z,69.2
2022-09-04T11:24:05.979Z,69.6
2022-09-04T11:29:45.974Z,69.7
2022-09-04T11:35:24.065Z,66.9
2022-09-04T11:41:05.835Z,69.2
2022-09-04T11:46:44.699Z,69.6
2022-09-04T11:52:22.088Z,69.5
2022-09-04T11:57:59.015Z,69.8
2022-09-04T12:03:37.487Z,68.8
2022-09-04T12:09:27.547Z,70.6
2022-09-04T12:15:25.094Z,70.1
2022-09-04T12:21:03.730Z,69.1
2022-09-04T12:26:51.414Z,64.4
2022-09-04T12:32:29.543Z,62.6
2022-09-04T12:38:13.085Z,69.1
2022-09-04T12:43:55.441Z,67.9
2022-09-04T12:49:33.441Z,66.5
2022-09-04T12:55:11.986Z,63.2
2022-09-04T13:00:50.384Z,59.6
2022-09-04T13:06:40.282Z,56.6
2022-09-04T13:12:29.472Z,54.1
2022-09-04T13:18:08.467Z,52.2
2022-09-04T13:23:35.477Z,51.2
2022-09-04T13:29:17.558Z,50.5
2022-09-04T13:35:04.009Z,50.4
2022-09-04T13:40:40.650Z,51.6
2022-09-04T13:46:18.053Z,50.7
2022-09-04T13:52:09.962Z,49.5
2022-09-04T13:57:51.396Z,48.1
2022-09-04T14:03:37.326Z,46.4
2022-09-04T14:09:21.898Z,44.7
2022-09-04T14:15:04.671Z,42.8
2022-09-04T14:20:56.607Z,41.3
2022-09-04T14:26:43.533Z,40.6
2022-09-04T14:32:32.731Z,42.4
2022-09-04T14:38:23.927Z,42.1
2022-09-04T14:44:01.096Z,41.4
2022-09-04T14:49:47.049Z,40.4
2022-09-04T14:55:29.458Z,39.5
2022-09-04T15:01:08.859Z,38.7
2022-09-04T15:07:17.509Z,37.8
2022-09-04T15:13:14.332Z,36.9
2022-09-04T18:51:54.062Z,16.8
2022-09-04T18:57:49.471Z,16.7
2022-09-04T19:03:34.314Z,16.6
2022-09-04T19:09:26.774Z,16.6
2022-09-04T19:15:52.661Z,16.5
2022-09-04T19:21:40.353Z,16.4
2022-09-04T19:28:00.910Z,16.4
2022-09-04T19:33:48.733Z,16.3
2022-09-04T19:48:20.879Z,16.3
2022-09-04T19:59:49.668Z,16.3
2022-09-04T20:06:38.317Z,16.3
2022-09-04T20:12:25.563Z,16.3
2022-09-04T20:18:20.522Z,16.3
2022-09-04T20:24:25.777Z,16.3
2022-09-04T20:30:29.230Z,16.3
2022-09-04T20:36:25.782Z,16.3
2022-09-04T20:41:55.417Z,16.3
2022-09-04T20:55:26.750Z,16.2
2022-09-04T21:07:52.261Z,16.2
2022-09-04T21:13:09.453Z,16.2
2022-09-04T21:19:44.071Z,16.3
2022-09-04T21:25:34.854Z,16.3
2022-09-04T21:31:28.855Z,16.3
2022-09-04T21:37:56.867Z,16.3
2022-09-04T21:44:26.594Z,16.3
2022-09-04T21:50:40.961Z,16.4
2022-09-04T22:05:03.156Z,16.4
2022-09-04T22:17:47.458Z,16.4
2022-09-04T22:23:39.652Z,16.4
2022-09-04T22:30:13.552Z,16.4
2022-09-04T22:36:37.339Z,16.4
2022-09-04T22:42:26.702Z,16.4
2022-09-04T22:48:18.262Z,16.5
2022-09-04T22:54:23.481Z,16.5
2022-09-04T23:01:13.554Z,16.5
2022-09-04T23:15:25.269Z,16.6
2022-09-04T23:30:43.110Z,16.3
2022-09-04T23:37:07.672Z,16.1
2022-09-04T23:43:07.472Z,16
2022-09-04T23:49:40.477Z,15.9
2022-09-04T23:55:15.734Z,15.8
